Terminal Aerodrome Forecast
Issued by NWS Dallas/Fort Worth, TX

Home | Current Version | Previous Version | Text Only | Print | Product List | Glossary On
Versions: 1 2 3 4 5 6 7 8 9 10 11 12 13 14 15 16 17 18 19 20 21 22 23 24 25 26 27 28 29 30
491
FTUS44 KFWD 241459 AAA
TAFDFW
TAF AMD
KDFW 241459Z 2415/2518 17011KT P6SM BKN018 OVC035
      TEMPO 2415/2417 5SM -RA OVC010
     FM241700 17015KT P6SM BKN025
     FM242100 16014KT P6SM BKN040
     FM250800 18013KT P6SM OVC010=

USA.gov is the U.S. government's official web portal to all federal, state and local government web resources and services.